Time;durP1;ratioP1;P1;durP2;ratioP2;P2;SDS_P1;SDS_P2;PMS_P1;PMS_P2;Temp;Humidity;BMP_temperature;BMP_pressure;BME280_temperature;BME280_humidity;BME280_pressure;Samples;Min_cycle;Max_cycle;Signal;HPM_P1;HPM_P2
2021/06/06 00:00:47;;;;;;;0.10;0.10;;;;;;;12.04;100.00;93605.75;2086874;28;20101;-90
2021/06/06 00:01:49;;;;;;;0.10;0.10;;;;;;;12.07;100.00;93617.56;2090646;28;20044;-89
2021/06/06 00:02:50;;;;;;;0.10;0.10;;;;;;;12.09;100.00;93617.91;2089225;28;20024;-90
2021/06/06 00:03:54;;;;;;;0.10;0.10;;;;;;;12.06;100.00;93611.44;2081793;28;20075;-90
2021/06/06 00:04:54;;;;;;;0.10;0.10;;;;;;;12.08;100.00;93616.41;2094735;28;20021;-89
2021/06/06 00:05:59;;;;;;;0.00;0.00;;;;;;;12.09;100.00;93615.25;2097416;28;20141;-90
2021/06/06 00:07:00;;;;;;;0.10;0.10;;;;;;;12.08;100.00;93611.81;2097783;28;20024;-91
2021/06/06 00:08:01;;;;;;;0.10;0.10;;;;;;;12.10;100.00;93614.81;2083868;28;20120;-90
2021/06/06 00:09:07;;;;;;;0.03;0.03;;;;;;;12.07;100.00;93615.66;2094330;28;20075;-91
2021/06/06 00:10:09;;;;;;;0.10;0.10;;;;;;;12.10;100.00;93611.38;2089750;28;20025;-90
2021/06/06 00:11:29;;;;;;;0.10;0.10;;;;;;;12.16;100.00;93617.78;2081764;28;20022;-90
2021/06/06 00:12:30;;;;;;;0.10;0.10;;;;;;;12.12;100.00;93613.66;2092198;28;20078;-90
2021/06/06 00:13:32;;;;;;;0.10;0.10;;;;;;;12.15;100.00;93613.56;2083594;28;20033;-90
2021/06/06 00:14:36;;;;;;;0.10;0.10;;;;;;;12.15;100.00;93618.19;2078664;28;20026;-89
2021/06/06 00:15:39;;;;;;;0.10;0.10;;;;;;;12.15;100.00;93618.94;2098211;28;20514;-89
2021/06/06 00:16:45;;;;;;;0.10;0.10;;;;;;;12.12;100.00;93613.66;2106066;28;20644;-90
2021/06/06 00:17:46;;;;;;;0.10;0.10;;;;;;;12.16;100.00;93617.78;2084527;28;20030;-92
2021/06/06 00:18:47;;;;;;;0.03;0.03;;;;;;;12.17;100.00;93613.94;2083358;28;20108;-89
2021/06/06 00:19:48;;;;;;;0.08;0.08;;;;;;;12.21;100.00;93611.94;2084739;28;20457;-90
2021/06/06 00:20:49;;;;;;;0.05;0.05;;;;;;;12.19;100.00;93613.50;2095875;28;20032;-89
2021/06/06 00:21:51;;;;;;;0.10;0.10;;;;;;;12.07;100.00;93620.25;2093960;28;20059;-91
2021/06/06 00:22:52;;;;;;;0.00;0.00;;;;;;;12.07;100.00;93610.31;2083970;28;20022;-90
2021/06/06 00:23:55;;;;;;;0.10;0.10;;;;;;;12.14;100.00;93606.72;2081626;28;20075;-89
2021/06/06 00:24:56;;;;;;;0.05;0.05;;;;;;;12.19;100.00;93608.16;2090219;28;20120;-89
2021/06/06 00:25:57;;;;;;;0.10;0.10;;;;;;;12.21;100.00;93616.56;2087533;28;20389;-89
2021/06/06 00:26:58;;;;;;;0.03;0.03;;;;;;;12.20;100.00;93615.03;2078024;28;20128;-91
2021/06/06 00:27:59;;;;;;;0.10;0.10;;;;;;;12.15;100.00;93610.91;2080467;28;20029;-90
2021/06/06 00:29:00;;;;;;;0.00;0.00;;;;;;;12.08;100.00;93606.44;2085657;28;20037;-89
2021/06/06 00:30:01;;;;;;;0.10;0.10;;;;;;;12.15;100.00;93608.22;2090923;28;20454;-89
2021/06/06 00:31:03;;;;;;;0.10;0.10;;;;;;;12.15;100.00;93610.91;2077804;28;20057;-90
2021/06/06 00:32:04;;;;;;;0.10;0.10;;;;;;;12.20;100.00;93606.97;2089690;28;20768;-90
2021/06/06 00:33:05;;;;;;;0.22;0.13;;;;;;;12.10;100.00;93596.06;2081517;28;20116;-89
2021/06/06 00:34:06;;;;;;;0.10;0.10;;;;;;;12.19;100.00;93598.19;2087422;28;20056;-90
2021/06/06 00:35:08;;;;;;;0.10;0.10;;;;;;;12.11;100.00;93596.81;2105188;28;20125;-89
2021/06/06 00:36:09;;;;;;;0.00;0.00;;;;;;;11.95;100.00;93591.41;2084946;28;20014;-88
2021/06/06 00:37:11;;;;;;;0.10;0.10;;;;;;;11.93;100.00;93599.09;2078608;28;20470;-88
2021/06/06 00:38:12;;;;;;;0.10;0.10;;;;;;;11.92;100.00;93601.00;2084459;28;20029;-87
2021/06/06 00:39:13;;;;;;;0.10;0.10;;;;;;;11.97;100.00;93592.50;2085916;28;20029;-90
2021/06/06 00:40:18;;;;;;;0.10;0.10;;;;;;;11.92;100.00;93592.97;2081430;28;20044;-89
2021/06/06 00:41:21;;;;;;;0.20;0.10;;;;;;;11.98;100.00;93596.69;2085090;28;20018;-90
2021/06/06 00:42:23;;;;;;;0.10;0.10;;;;;;;11.96;100.00;93595.59;2091217;28;20465;-91
2021/06/06 00:43:24;;;;;;;0.15;0.10;;;;;;;11.92;100.00;93601.00;2083143;28;20028;-89
2021/06/06 00:44:26;;;;;;;0.10;0.10;;;;;;;12.03;100.00;93604.25;2078413;28;20025;-89
2021/06/06 00:45:29;;;;;;;0.10;0.10;;;;;;;12.02;100.00;93599.28;2080461;28;20581;-90
2021/06/06 00:46:30;;;;;;;0.10;0.10;;;;;;;11.96;100.00;93598.28;2087564;28;20378;-90
2021/06/06 00:47:31;;;;;;;0.10;0.10;;;;;;;12.01;100.00;93598.53;2082703;28;20084;-89
2021/06/06 00:48:32;;;;;;;0.10;0.10;;;;;;;12.00;100.00;93590.94;2073696;28;20034;-89
2021/06/06 00:49:32;;;;;;;0.05;0.05;;;;;;;11.98;100.00;93594.00;2092388;28;20053;-89
2021/06/06 00:50:37;;;;;;;1.23;0.30;;;;;;;11.90;100.00;93592.66;2092629;28;20047;-87
2021/06/06 00:51:44;;;;;;;0.10;0.10;;;;;;;11.94;100.00;93590.66;2082924;28;20406;-89
2021/06/06 00:52:48;;;;;;;0.10;0.10;;;;;;;11.87;100.00;93590.78;2088202;28;20115;-90
2021/06/06 00:53:54;;;;;;;0.10;0.10;;;;;;;11.94;100.00;93590.66;2081314;28;20075;-90
2021/06/06 00:54:55;;;;;;;0.10;0.10;;;;;;;11.91;100.00;93594.16;2098274;28;20032;-90
2021/06/06 00:55:56;;;;;;;0.10;0.10;;;;;;;11.96;100.00;93588.31;2097548;28;20042;-90
2021/06/06 00:57:25;;;;;;;0.00;0.00;;;;;;;11.98;100.00;93593.25;2081276;28;20386;-89
2021/06/06 00:58:25;;;;;;;0.10;0.10;;;;;;;11.98;100.00;93594.00;2094006;28;20036;-90
2021/06/06 00:59:27;;;;;;;0.10;0.10;;;;;;;11.97;100.00;93589.81;2097554;28;20032;-89
2021/06/06 01:00:35;;;;;;;0.00;0.00;;;;;;;11.98;100.00;93595.94;2094813;28;20029;-88
2021/06/06 01:01:36;;;;;;;0.10;0.10;;;;;;;11.97;100.00;93589.81;2090118;28;20021;-88
2021/06/06 01:02:38;;;;;;;0.00;0.00;;;;;;;12.03;100.00;93590.09;2075875;28;20025;-89
2021/06/06 01:03:39;;;;;;;0.10;0.10;;;;;;;12.01;100.00;93595.09;2086957;28;20116;-89
2021/06/06 01:04:41;;;;;;;0.10;0.10;;;;;;;11.96;100.00;93585.63;2091734;28;20032;-89
2021/06/06 01:05:45;;;;;;;0.00;0.00;;;;;;;11.98;100.00;93583.28;2086217;28;20031;-89
2021/06/06 01:06:49;;;;;;;0.00;0.00;;;;;;;11.98;100.00;93583.28;2085195;28;20036;-88
2021/06/06 01:07:50;;;;;;;0.10;0.10;;;;;;;11.97;100.00;93591.75;2081586;28;20040;-89
2021/06/06 01:08:52;;;;;;;0.10;0.10;;;;;;;11.97;100.00;93589.81;2085593;28;20374;-90
2021/06/06 01:09:53;;;;;;;0.05;0.05;;;;;;;11.93;100.00;93583.75;2086023;28;20025;-88
2021/06/06 01:11:00;;;;;;;0.10;0.10;;;;;;;11.99;100.00;93584.06;2087818;28;20613;-89
2021/06/06 01:12:29;;;;;;;0.00;0.00;;;;;;;11.98;100.00;93585.97;2083801;28;20122;-89
2021/06/06 01:13:40;;;;;;;0.00;0.00;;;;;;;12.01;100.00;93589.75;2095049;28;20537;-87
2021/06/06 01:14:45;;;;;;;0.10;0.10;;;;;;;12.02;100.00;93591.25;2090513;28;20028;-90
2021/06/06 01:15:52;;;;;;;0.10;0.10;;;;;;;11.97;100.00;93587.13;2086431;28;20025;-88
2021/06/06 01:17:07;;;;;;;0.28;0.10;;;;;;;12.02;100.00;93583.97;2084615;28;20017;-88
2021/06/06 01:18:23;;;;;;;0.10;0.10;;;;;;;12.01;100.00;93582.47;2079888;28;20030;-88
2021/06/06 01:19:33;;;;;;;0.10;0.10;;;;;;;11.98;100.00;93583.28;2089060;28;20040;-89
2021/06/06 01:21:04;;;;;;;0.10;0.10;;;;;;;12.00;100.00;93588.25;2091632;28;20021;-89
2021/06/06 01:22:42;;;;;;;0.20;0.10;;;;;;;11.97;100.00;93573.00;2083385;28;20028;-89
2021/06/06 01:24:13;;;;;;;0.00;0.00;;;;;;;12.01;100.00;93582.47;2094003;28;20381;-89
2021/06/06 01:25:28;;;;;;;0.10;0.10;;;;;;;12.02;100.00;93581.28;2093323;28;20066;-89
2021/06/06 01:27:15;;;;;;;0.10;0.10;;;;;;;12.00;100.00;93572.91;2092730;28;20021;-87
2021/06/06 01:28:26;;;;;;;0.10;0.10;;;;;;;12.00;100.00;93580.97;2085041;28;20044;-89
2021/06/06 01:29:35;;;;;;;;;;;;;;;12.02;100.00;93570.56;2095503;28;20082;-88
2021/06/06 01:30:43;;;;;;;0.10;0.10;;;;;;;12.00;100.00;93575.59;2082569;28;20369;-89
2021/06/06 01:31:49;;;;;;;0.10;0.10;;;;;;;11.99;100.00;93573.34;2082056;28;20044;-88
2021/06/06 01:32:59;;;;;;;0.10;0.10;;;;;;;12.00;100.00;93569.50;2080262;28;20029;-89
2021/06/06 01:34:03;;;;;;;0.10;0.10;;;;;;;12.03;100.00;93571.34;2066728;28;20018;-90
2021/06/06 01:35:24;;;;;;;0.10;0.10;;;;;;;12.04;100.00;93568.25;2081528;28;20052;-89
2021/06/06 01:36:32;;;;;;;0.10;0.10;;;;;;;12.10;100.00;93571.94;2094128;28;20016;-89
2021/06/06 01:37:37;;;;;;;0.17;0.10;;;;;;;12.14;100.00;93571.13;2085932;28;20082;-88
2021/06/06 01:39:07;;;;;;;0.20;0.10;;;;;;;12.12;100.00;93571.53;2070034;28;20026;-90
2021/06/06 01:40:13;;;;;;;0.10;0.10;;;;;;;12.08;100.00;93565.50;2091424;28;20493;-89
2021/06/06 01:41:18;;;;;;;0.10;0.10;;;;;;;12.02;100.00;93567.13;2094006;28;20509;-88
2021/06/06 01:42:26;;;;;;;0.05;0.05;;;;;;;12.07;100.00;93566.66;2084240;28;20084;-89
2021/06/06 01:43:31;;;;;;;0.10;0.10;;;;;;;12.09;100.00;93562.41;2075137;28;20032;-89
2021/06/06 01:44:35;;;;;;;0.10;0.10;;;;;;;12.08;100.00;93560.16;2072669;28;20112;-89
2021/06/06 01:45:40;;;;;;;0.10;0.10;;;;;;;12.00;100.00;93556.84;2087656;28;20082;-89
2021/06/06 01:46:44;;;;;;;0.10;0.10;;;;;;;12.02;100.00;93559.84;2087715;28;20525;-89
2021/06/06 01:47:48;;;;;;;0.10;0.10;;;;;;;12.02;100.00;93551.81;2079866;28;20436;-89
2021/06/06 01:48:51;;;;;;;0.10;0.10;;;;;;;12.02;100.00;93561.78;2085297;28;20029;-88
2021/06/06 01:49:59;;;;;;;0.08;0.08;;;;;;;12.03;100.00;93564.06;2089529;28;20139;-88
2021/06/06 01:51:04;;;;;;;0.10;0.10;;;;;;;12.04;100.00;93560.22;2076786;28;20037;-88
2021/06/06 01:52:09;;;;;;;0.00;0.00;;;;;;;12.03;100.00;93560.63;2077247;28;20021;-90
2021/06/06 01:53:13;;;;;;;0.10;0.10;;;;;;;12.03;100.00;93561.38;2085160;28;20462;-87
2021/06/06 01:54:17;;;;;;;0.10;0.10;;;;;;;12.06;100.00;93555.19;2075762;28;20547;-89
2021/06/06 01:55:23;;;;;;;0.10;0.10;;;;;;;12.01;100.00;93561.03;2074620;28;20584;-88
2021/06/06 01:56:30;;;;;;;0.00;0.00;;;;;;;12.01;100.00;93558.34;2073672;28;20540;-90
2021/06/06 01:57:32;;;;;;;0.10;0.10;;;;;;;12.04;100.00;93560.22;2087016;28;20041;-90
2021/06/06 01:58:35;;;;;;;0.10;0.10;;;;;;;12.07;100.00;93555.94;2089510;28;20110;-90
2021/06/06 01:59:40;;;;;;;0.00;0.00;;;;;;;11.99;100.00;93554.59;2082689;28;20537;-88
2021/06/06 02:00:53;;;;;;;0.10;0.10;;;;;;;12.01;100.00;93562.97;2072880;28;20129;-88
2021/06/06 02:01:54;;;;;;;0.13;0.10;;;;;;;12.02;100.00;93559.09;2090045;28;20037;-88
2021/06/06 02:02:56;;;;;;;0.05;0.05;;;;;;;12.09;100.00;93548.25;2084761;28;20037;-88
2021/06/06 02:05:35;;;;;;;;;;;;;;;12.00;100.00;93554.16;2144345;27;20110;-89
2021/06/06 02:06:43;;;;;;;0.05;0.05;;;;;;;11.98;100.00;93555.72;2120290;27;19911;-90
2021/06/06 02:07:45;;;;;;;0.00;0.00;;;;;;;11.95;100.00;93548.53;2114057;27;20039;-88
2021/06/06 02:08:46;;;;;;;0.20;0.10;;;;;;;11.93;100.00;93553.53;2112106;28;20024;-89
2021/06/06 02:10:11;;;;;;;0.00;0.00;;;;;;;12.02;100.00;93559.09;2103906;28;20016;-89
2021/06/06 02:11:21;;;;;;;0.03;0.03;;;;;;;12.01;100.00;93557.59;2108543;28;20027;-88
2021/06/06 02:12:24;;;;;;;0.05;0.05;;;;;;;11.98;100.00;93553.06;2106227;28;20457;-88
2021/06/06 02:13:51;;;;;;;0.10;0.10;;;;;;;11.99;100.00;93551.91;2112458;28;20023;-89
2021/06/06 02:14:52;;;;;;;0.00;0.00;;;;;;;11.97;100.00;93554.97;2125925;27;20019;-88
2021/06/06 02:15:58;;;;;;;0.00;0.00;;;;;;;11.98;100.00;93561.09;2112013;28;20038;-90
2021/06/06 02:17:03;;;;;;;0.03;0.03;;;;;;;12.08;100.00;93557.47;2113586;27;20031;-90
2021/06/06 02:18:06;;;;;;;0.00;0.00;;;;;;;11.98;100.00;93558.41;2112637;28;20081;-90
2021/06/06 02:19:08;;;;;;;0.00;0.00;;;;;;;11.98;100.00;93553.81;2112824;27;20091;-89
2021/06/06 02:20:09;;;;;;;0.10;0.10;;;;;;;11.93;100.00;93548.94;2120388;27;20035;-89
2021/06/06 02:21:11;;;;;;;0.00;0.00;;;;;;;11.98;100.00;93553.81;2112168;28;20111;-88
2021/06/06 02:22:14;;;;;;;0.03;0.03;;;;;;;11.93;100.00;93556.97;2111798;27;20020;-89
2021/06/06 02:23:20;;;;;;;0.03;0.03;;;;;;;11.91;100.00;93551.28;2117933;28;20019;-89
2021/06/06 02:24:21;;;;;;;0.08;0.08;;;;;;;11.87;100.00;93553.28;2110713;28;20023;-88
2021/06/06 02:25:23;;;;;;;0.10;0.00;;;;;;;11.89;100.00;93553.59;2103503;28;20078;-88
2021/06/06 02:26:27;;;;;;;0.00;0.00;;;;;;;11.88;100.00;93559.38;2112421;27;20024;-88
2021/06/06 02:27:41;;;;;;;0.00;0.00;;;;;;;11.83;100.00;93553.34;2111777;28;20023;-88
2021/06/06 02:29:01;;;;;;;0.03;0.03;;;;;;;11.93;100.00;93545.50;2107292;28;20611;-88
2021/06/06 02:30:10;;;;;;;0.10;0.10;;;;;;;11.91;100.00;93551.28;2116290;27;20535;-87
2021/06/06 02:31:54;;;;;;;0.00;0.00;;;;;;;11.87;100.00;93549.84;2108872;28;20336;-88
2021/06/06 02:33:05;;;;;;;0.00;0.00;;;;;;;11.88;100.00;93552.09;2113121;28;20039;-88
2021/06/06 02:34:23;;;;;;;0.25;0.10;;;;;;;11.87;100.00;93544.50;2105063;28;20027;-89
2021/06/06 02:35:32;;;;;;;0.10;0.10;;;;;;;11.83;100.00;93552.59;2107910;28;20024;-88
2021/06/06 02:36:36;;;;;;;0.10;0.10;;;;;;;11.77;100.00;93552.28;2114262;27;20038;-88
2021/06/06 02:37:55;;;;;;;0.10;0.10;;;;;;;11.81;100.00;93542.28;2112150;28;20081;-89
2021/06/06 02:39:04;;;;;;;0.10;0.10;;;;;;;11.75;100.00;93543.16;2108647;28;20024;-88
2021/06/06 02:40:11;;;;;;;0.00;0.00;;;;;;;11.75;100.00;93543.91;2105900;28;20020;-87
2021/06/06 02:41:16;;;;;;;0.10;0.10;;;;;;;11.81;100.00;93549.56;2113406;27;20081;-87
2021/06/06 02:42:24;;;;;;;0.00;0.00;;;;;;;11.72;100.00;93547.44;2112280;28;20036;-88
2021/06/06 02:43:40;;;;;;;0.10;0.10;;;;;;;11.75;100.00;93551.94;2105303;28;20024;-89
2021/06/06 02:44:46;;;;;;;0.10;0.10;;;;;;;11.86;100.00;93556.38;2107509;28;20024;-90
2021/06/06 02:45:50;;;;;;;0.00;0.00;;;;;;;11.82;100.00;93551.84;2112206;28;20028;-89
2021/06/06 02:46:52;;;;;;;0.10;0.10;;;;;;;11.83;100.00;93544.56;2112657;27;20024;-89
2021/06/06 02:47:56;;;;;;;0.05;0.05;;;;;;;11.83;100.00;93552.59;2111830;28;20024;-89
2021/06/06 02:49:06;;;;;;;0.10;0.10;;;;;;;11.80;100.00;93548.03;2111980;28;20027;-88
2021/06/06 02:50:13;;;;;;;0.10;0.10;;;;;;;11.88;100.00;93546.00;2105924;28;20024;-89
2021/06/06 02:51:18;;;;;;;0.00;0.00;;;;;;;11.80;100.00;93550.69;2113383;27;20662;-90
2021/06/06 02:52:41;;;;;;;0.00;0.00;;;;;;;11.72;100.00;93544.75;2120680;27;20042;-88
2021/06/06 02:53:48;;;;;;;0.00;0.00;;;;;;;11.67;100.00;93547.13;2113581;28;20082;-88
2021/06/06 02:54:56;;;;;;;0.00;0.00;;;;;;;11.74;100.00;93549.69;2105177;28;20021;-89
2021/06/06 02:56:02;;;;;;;0.00;0.00;;;;;;;11.68;100.00;93546.75;2105034;28;20042;-88
2021/06/06 02:57:07;;;;;;;0.00;0.00;;;;;;;11.72;100.00;93544.75;2104691;28;20062;-87
2021/06/06 02:58:13;;;;;;;0.05;0.05;;;;;;;11.68;100.00;93544.06;2108925;28;20111;-87
2021/06/06 02:59:23;;;;;;;0.00;0.00;;;;;;;11.76;100.00;93541.97;2103948;28;20024;-88
2021/06/06 03:00:37;;;;;;;0.00;0.00;;;;;;;11.69;100.00;93534.09;2103011;28;20410;-89
2021/06/06 03:01:43;;;;;;;0.00;0.00;;;;;;;11.65;100.00;93539.50;2105542;28;20024;-88
2021/06/06 03:02:48;;;;;;;0.10;0.10;;;;;;;11.68;100.00;93540.63;2096062;28;20112;-90
2021/06/06 03:03:51;;;;;;;0.00;0.00;;;;;;;11.76;100.00;93534.69;2104496;28;20533;-87
2021/06/06 03:04:58;;;;;;;0.00;0.00;;;;;;;11.67;100.00;93541.78;2103140;28;20086;-88
2021/06/06 03:06:02;;;;;;;0.00;0.00;;;;;;;11.71;100.00;93537.84;2103332;28;20032;-87
2021/06/06 03:07:08;;;;;;;0.08;0.08;;;;;;;11.67;100.00;93531.81;2102798;28;20024;-89
2021/06/06 03:08:11;;;;;;;0.00;0.00;;;;;;;11.64;100.00;93534.59;2101796;28;20024;-88
2021/06/06 03:09:13;;;;;;;0.10;0.10;;;;;;;11.65;100.00;93531.47;2103367;28;20024;-88
2021/06/06 03:10:17;;;;;;;0.00;0.00;;;;;;;11.68;100.00;93529.91;2095108;28;20424;-89
2021/06/06 03:11:19;;;;;;;0.00;0.00;;;;;;;11.68;100.00;93535.28;2103915;28;20455;-88
2021/06/06 03:12:22;;;;;;;0.10;0.10;;;;;;;11.67;100.00;93536.41;2103089;28;20111;-87
2021/06/06 03:13:28;;;;;;;0.20;0.10;;;;;;;11.70;100.00;93524.91;2111029;28;20106;-90
2021/06/06 03:14:33;;;;;;;0.10;0.10;;;;;;;11.72;100.00;93527.91;2103950;28;20496;-88
2021/06/06 03:15:39;;;;;;;0.05;0.05;;;;;;;11.66;100.00;93529.56;2104002;28;20600;-88
2021/06/06 03:16:52;;;;;;;0.00;0.00;;;;;;;11.63;100.00;93525.03;2099722;28;20590;-86
2021/06/06 03:17:53;;;;;;;0.00;0.00;;;;;;;11.63;100.00;93522.34;2085759;28;20036;-87
2021/06/06 03:18:56;;;;;;;0.00;0.00;;;;;;;11.63;100.00;93525.78;2105998;28;20051;-88
2021/06/06 03:20:00;;;;;;;0.00;0.00;;;;;;;11.60;100.00;93518.56;2105631;28;20477;-89
2021/06/06 03:21:29;;;;;;;0.00;0.00;;;;;;;11.56;100.00;93531.28;2090085;28;20465;-87
2021/06/06 03:22:34;;;;;;;0.10;0.10;;;;;;;11.58;100.00;93528.94;2102297;28;20036;-87
2021/06/06 03:23:36;;;;;;;0.00;0.00;;;;;;;11.58;100.00;93528.94;2110999;28;20118;-88
2021/06/06 03:24:48;;;;;;;0.00;0.00;;;;;;;11.63;100.00;93514.31;2097283;28;20114;-89
2021/06/06 03:25:54;;;;;;;0.10;0.10;;;;;;;11.65;100.00;93515.41;2092423;28;20481;-88
2021/06/06 03:26:56;;;;;;;0.00;0.00;;;;;;;11.59;100.00;93520.50;2098528;28;20528;-89
2021/06/06 03:27:57;;;;;;;0.05;0.05;;;;;;;11.63;100.00;93519.66;2097604;28;20028;-89
2021/06/06 03:29:01;;;;;;;0.00;0.00;;;;;;;11.63;100.00;93514.31;2105896;28;20027;-88
2021/06/06 03:30:22;;;;;;;0.00;0.00;;;;;;;11.59;100.00;93511.72;2102479;28;20032;-88
2021/06/06 03:31:27;;;;;;;0.00;0.00;;;;;;;11.68;100.00;93517.28;2103617;28;20038;-88
2021/06/06 03:32:34;;;;;;;0.10;0.10;;;;;;;11.71;100.00;93513.75;2090099;28;20446;-87
2021/06/06 03:33:43;;;;;;;0.30;0.10;;;;;;;11.59;100.00;93520.50;2094739;28;20020;-86
2021/06/06 03:34:44;;;;;;;0.03;0.03;;;;;;;11.63;100.00;93519.66;2091387;28;20212;-88
2021/06/06 03:35:44;;;;;;;0.20;0.10;;;;;;;11.54;100.00;93518.28;2097438;28;20489;-87
2021/06/06 03:36:47;;;;;;;0.00;0.00;;;;;;;11.59;100.00;93519.75;2097299;28;20112;-88
2021/06/06 03:37:48;;;;;;;0.00;0.00;;;;;;;11.58;100.00;93512.88;2097847;28;20037;-89
2021/06/06 03:38:50;;;;;;;0.00;0.00;;;;;;;11.53;100.00;93522.13;2095091;28;20465;-88
2021/06/06 03:39:52;;;;;;;0.00;0.00;;;;;;;11.49;100.00;93512.66;2097729;28;20032;-88
2021/06/06 03:40:53;;;;;;;0.00;0.00;;;;;;;11.45;100.00;93517.31;2105932;28;20023;-86
2021/06/06 03:42:04;;;;;;;0.10;0.10;;;;;;;11.51;100.00;93518.38;2097425;28;20036;-87
2021/06/06 03:43:08;;;;;;;0.00;0.00;;;;;;;11.60;100.00;93518.56;2098600;28;20025;-87
2021/06/06 03:44:09;;;;;;;0.00;0.00;;;;;;;11.52;100.00;93515.28;2098177;28;20078;-88
2021/06/06 03:45:11;;;;;;;0.00;0.00;;;;;;;11.53;100.00;93519.47;2105634;28;20020;-88
2021/06/06 03:46:12;;;;;;;0.10;0.10;;;;;;;11.47;100.00;93509.66;2097612;28;20688;-87
2021/06/06 03:47:13;;;;;;;0.03;0.00;;;;;;;11.49;100.00;93509.97;2095637;28;20036;-88
2021/06/06 03:48:14;;;;;;;0.10;0.10;;;;;;;11.48;100.00;93514.59;2097185;28;20028;-89
2021/06/06 03:49:15;;;;;;;0.00;0.00;;;;;;;11.60;100.00;93510.53;2097176;28;20147;-87
2021/06/06 03:50:18;;;;;;;0.00;0.00;;;;;;;11.60;100.00;93510.53;2096805;28;20094;-87
2021/06/06 03:51:18;;;;;;;0.00;0.00;;;;;;;11.59;100.00;93520.50;2105744;28;20031;-84
2021/06/06 03:52:19;;;;;;;0.10;0.10;;;;;;;11.53;100.00;93518.69;2105608;28;20047;-88
2021/06/06 03:53:23;;;;;;;0.10;0.00;;;;;;;11.54;100.00;93518.28;2087941;28;20045;-87
2021/06/06 03:54:23;;;;;;;0.10;0.10;;;;;;;11.52;100.00;93520.63;2086231;28;20029;-88
2021/06/06 03:55:25;;;;;;;0.00;0.00;;;;;;;11.53;100.00;93516.03;2096362;28;20024;-87
2021/06/06 03:56:25;;;;;;;0.05;0.05;;;;;;;11.56;100.00;93513.28;2103059;28;20434;-88
2021/06/06 03:57:26;;;;;;;0.00;0.00;;;;;;;11.55;100.00;93513.72;2093303;28;20021;-88
2021/06/06 03:58:27;;;;;;;0.00;0.00;;;;;;;11.53;100.00;93518.69;2095100;28;20032;-88
2021/06/06 03:59:28;;;;;;;0.00;0.00;;;;;;;11.64;100.00;93516.59;2090880;28;20079;-88
2021/06/06 04:00:35;;;;;;;0.08;0.08;;;;;;;11.67;100.00;93520.34;2092466;28;20028;-88
2021/06/06 04:01:36;;;;;;;0.03;0.03;;;;;;;11.60;100.00;93521.25;2088394;28;20032;-89
2021/06/06 04:02:36;;;;;;;0.00;0.00;;;;;;;11.66;100.00;93521.53;2088989;28;20135;-88
2021/06/06 04:03:37;;;;;;;0.00;0.00;;;;;;;11.67;100.00;93520.34;2088844;28;20043;-89
2021/06/06 04:04:38;;;;;;;0.00;0.00;;;;;;;11.68;100.00;93521.88;2093347;28;20108;-88
2021/06/06 04:05:39;;;;;;;0.47;0.03;;;;;;;11.73;100.00;93514.13;2097107;28;20499;-88
2021/06/06 04:06:40;;;;;;;0.28;0.00;;;;;;;11.75;100.00;93519.06;2088745;28;20107;-89
2021/06/06 04:07:41;;;;;;;0.00;0.00;;;;;;;11.75;100.00;93519.06;2105466;28;20553;-88
2021/06/06 04:08:41;;;;;;;0.10;0.10;;;;;;;11.71;100.00;93521.78;2113781;28;20132;-88
2021/06/06 04:09:42;;;;;;;0.00;0.00;;;;;;;11.72;100.00;93523.31;2097136;28;20077;-88
2021/06/06 04:10:44;;;;;;;0.00;0.00;;;;;;;11.70;100.00;93516.84;2088765;28;20029;-88
2021/06/06 04:11:45;;;;;;;0.00;0.00;;;;;;;11.76;100.00;93521.31;2097303;28;20021;-88
2021/06/06 04:12:45;;;;;;;0.00;0.00;;;;;;;11.75;100.00;93519.81;2086487;28;20033;-88
2021/06/06 04:13:46;;;;;;;0.00;0.00;;;;;;;11.76;100.00;93515.19;2095244;28;20012;-88
2021/06/06 04:14:47;;;;;;;0.08;0.08;;;;;;;11.79;100.00;93515.13;2096765;28;20038;-88
2021/06/06 04:15:48;;;;;;;0.00;0.00;;;;;;;11.80;100.00;93519.31;2099661;28;20024;-87
2021/06/06 04:16:49;;;;;;;0.10;0.10;;;;;;;11.77;100.00;93508.69;2103723;28;20050;-88
2021/06/06 04:17:50;;;;;;;0.00;0.00;;;;;;;11.80;100.00;93513.19;2102040;28;20068;-88
2021/06/06 04:18:50;;;;;;;0.00;0.00;;;;;;;11.79;100.00;93504.41;2105247;28;20040;-89
2021/06/06 04:19:53;;;;;;;0.00;0.00;;;;;;;11.79;100.00;93515.13;2095175;28;20052;-88
2021/06/06 04:20:56;;;;;;;0.00;0.00;;;;;;;11.76;100.00;93512.53;2088496;28;20067;-87
2021/06/06 04:21:57;;;;;;;0.00;0.00;;;;;;;11.83;100.00;93513.16;2091653;28;20033;-89
2021/06/06 04:22:57;;;;;;;0.08;0.08;;;;;;;11.86;100.00;93505.50;2099724;28;20397;-88
2021/06/06 04:23:58;;;;;;;0.10;0.10;;;;;;;11.81;100.00;93506.69;2088441;28;20047;-88
2021/06/06 04:24:59;;;;;;;0.00;0.00;;;;;;;11.89;100.00;93505.41;2101210;28;20020;-87
2021/06/06 04:26:00;;;;;;;0.10;0.10;;;;;;;11.91;100.00;93505.75;2113809;28;20023;-88
2021/06/06 04:27:01;;;;;;;0.03;0.03;;;;;;;11.88;100.00;93500.47;2097079;28;20031;-86
2021/06/06 04:28:03;;;;;;;0.00;0.00;;;;;;;11.90;100.00;93512.28;2093102;28;20024;-88
2021/06/06 04:29:04;;;;;;;0.00;0.00;;;;;;;11.84;100.00;93505.88;2104634;28;20080;-88
2021/06/06 04:30:09;;;;;;;0.10;0.10;;;;;;;11.82;100.00;93502.84;2097081;28;20150;-88
2021/06/06 04:31:10;;;;;;;0.00;0.00;;;;;;;11.90;100.00;93506.16;2084786;28;20070;-86
2021/06/06 04:32:15;;;;;;;0.10;0.10;;;;;;;11.91;100.00;93508.44;2088909;28;20389;-88
2021/06/06 04:33:16;;;;;;;0.10;0.10;;;;;;;11.89;100.00;93502.72;2097744;28;20539;-87
2021/06/06 04:34:17;;;;;;;0.10;0.10;;;;;;;11.91;100.00;93503.06;2102526;28;20512;-88
2021/06/06 04:35:18;;;;;;;0.10;0.10;;;;;;;11.89;100.00;93510.00;2085599;28;20051;-88
2021/06/06 04:36:19;;;;;;;0.00;0.00;;;;;;;11.94;100.00;93498.78;2091329;28;20054;-88
2021/06/06 04:37:20;;;;;;;0.08;0.08;;;;;;;11.94;100.00;93499.56;2096766;28;20551;-87
2021/06/06 04:38:24;;;;;;;0.10;0.10;;;;;;;11.77;100.00;93493.38;2091863;28;20116;-88
2021/06/06 04:39:25;;;;;;;0.20;0.10;;;;;;;11.93;100.00;93503.41;2106006;27;20020;-88
2021/06/06 04:40:26;;;;;;;0.00;0.00;;;;;;;11.87;100.00;93502.38;2113577;28;20023;-88
2021/06/06 04:41:26;;;;;;;0.00;0.00;;;;;;;11.82;100.00;93495.59;2104907;28;20024;-87
2021/06/06 04:42:27;;;;;;;0.10;0.10;;;;;;;11.93;100.00;93498.03;2095720;28;20020;-87
2021/06/06 04:43:28;;;;;;;0.03;0.03;;;;;;;11.88;100.00;93498.53;2089682;28;20017;-88
2021/06/06 04:44:29;;;;;;;0.00;0.00;;;;;;;11.90;100.00;93500.81;2100934;28;20030;-87
2021/06/06 04:45:30;;;;;;;0.10;0.10;;;;;;;11.97;100.00;93496.03;2096684;28;20083;-88
2021/06/06 04:46:30;;;;;;;0.10;0.10;;;;;;;11.94;100.00;93496.13;2099582;28;20058;-88
2021/06/06 04:47:31;;;;;;;0.10;0.10;;;;;;;11.87;100.00;93491.69;2096877;28;20036;-88
2021/06/06 04:48:41;;;;;;;0.00;0.00;;;;;;;11.90;100.00;93492.78;2102502;28;20012;-88
2021/06/06 04:49:44;;;;;;;0.00;0.00;;;;;;;11.95;100.00;93501.06;2100361;28;20020;-88
2021/06/06 04:50:47;;;;;;;0.00;0.00;;;;;;;11.92;100.00;93498.47;2104949;28;20477;-87
2021/06/06 04:51:48;;;;;;;0.10;0.10;;;;;;;11.92;100.00;93493.84;2096932;28;20032;-88
2021/06/06 04:52:49;;;;;;;0.10;0.10;;;;;;;11.93;100.00;93492.69;2088490;28;20505;-88
2021/06/06 04:53:52;;;;;;;0.00;0.00;;;;;;;12.15;100.00;93495.66;2100809;28;20036;-88
2021/06/06 04:54:52;;;;;;;0.05;0.05;;;;;;;11.99;100.00;93496.41;2109047;28;20023;-87
2021/06/06 04:55:56;;;;;;;0.00;0.00;;;;;;;12.02;100.00;93497.47;2096676;28;20032;-87
2021/06/06 04:56:57;;;;;;;0.10;0.10;;;;;;;12.06;100.00;93493.56;2104926;28;20677;-89
2021/06/06 04:57:58;;;;;;;0.00;0.00;;;;;;;12.05;100.00;93491.31;2088319;28;20028;-88
2021/06/06 04:58:59;;;;;;;0.00;0.00;;;;;;;12.05;100.00;93489.38;2096620;28;20024;-88
2021/06/06 05:00:00;;;;;;;0.00;0.00;;;;;;;12.14;100.00;93490.72;2098524;28;20028;-89
2021/06/06 05:01:01;;;;;;;0.00;0.00;;;;;;;12.06;100.00;93490.13;2088523;28;20032;-87
2021/06/06 05:02:09;;;;;;;0.00;0.00;;;;;;;12.18;100.00;93488.72;2094432;28;20373;-88
2021/06/06 05:03:12;;;;;;;0.10;0.10;;;;;;;12.28;100.00;93496.53;2096455;28;20028;-88
2021/06/06 05:04:12;;;;;;;0.00;0.00;;;;;;;12.18;100.00;93492.16;2095079;28;20508;-87
2021/06/06 05:05:13;;;;;;;0.00;0.00;;;;;;;12.08;100.00;93491.22;2087766;28;20106;-88